createdAt,value
2018-02-06T00:00:43.178Z,0
2018-02-06T00:01:27.890Z,0
2018-02-06T00:02:12.605Z,0
2018-02-06T00:02:57.303Z,0
2018-02-06T00:03:42.060Z,0
2018-02-06T00:04:26.760Z,0
2018-02-06T00:05:11.457Z,0
2018-02-06T00:05:56.157Z,0
2018-02-06T00:06:40.913Z,0
2018-02-06T00:07:25.659Z,0
2018-02-06T00:08:10.345Z,0
2018-02-06T00:08:55.085Z,0
2018-02-06T00:09:39.781Z,0
2018-02-06T00:10:24.481Z,0
2018-02-06T00:11:09.235Z,0
2018-02-06T00:11:53.937Z,0
2018-02-06T00:12:38.637Z,0
2018-02-06T00:13:23.411Z,0
2018-02-06T00:14:08.179Z,0
2018-02-06T00:14:52.878Z,0
2018-02-06T00:15:37.588Z,0
2018-02-06T00:16:22.308Z,0
2018-02-06T00:17:07.056Z,0
2018-02-06T00:17:51.738Z,0
2018-02-06T00:18:36.442Z,0
2018-02-06T00:19:21.212Z,0
2018-02-06T00:20:05.912Z,0
2018-02-06T00:20:50.617Z,0
2018-02-06T00:21:35.338Z,0
2018-02-06T00:22:20.090Z,0
2018-02-06T00:23:04.789Z,0
2018-02-06T00:23:49.512Z,0
2018-02-06T00:24:34.217Z,0
2018-02-06T00:25:18.917Z,0
2018-02-06T00:26:03.616Z,0
2018-02-06T00:26:48.364Z,0
2018-02-06T00:27:33.068Z,0
2018-02-06T00:28:17.790Z,0
2018-02-06T00:29:02.495Z,0
2018-02-06T00:29:47.192Z,0
2018-02-06T00:30:31.945Z,0
2018-02-06T00:31:16.641Z,0
2018-02-06T00:32:01.379Z,0
2018-02-06T00:32:46.101Z,0
2018-02-06T00:33:30.800Z,0
2018-02-06T00:34:15.506Z,0
2018-02-06T00:35:00.276Z,0
2018-02-06T00:35:44.981Z,0
2018-02-06T00:36:29.749Z,0
2018-02-06T00:37:14.446Z,0
2018-02-06T00:37:59.152Z,0
2018-02-06T00:38:43.847Z,0
2018-02-06T00:39:28.551Z,0
2018-02-06T00:40:13.254Z,0
2018-02-06T00:40:57.978Z,0
2018-02-06T00:41:42.682Z,0
2018-02-06T00:42:27.384Z,0
2018-02-06T00:43:12.083Z,0
2018-02-06T00:43:56.806Z,0
2018-02-06T00:44:41.506Z,0
2018-02-06T00:45:26.217Z,0
2018-02-06T00:46:10.918Z,0
2018-02-06T00:46:55.617Z,0
2018-02-06T00:47:40.369Z,0
2018-02-06T00:48:25.089Z,0
2018-02-06T00:49:09.795Z,0
2018-02-06T00:49:54.491Z,0
2018-02-06T00:50:39.241Z,0
2018-02-06T00:51:23.946Z,0
2018-02-06T00:52:08.645Z,0
2018-02-06T00:52:53.417Z,0
2018-02-06T00:53:38.162Z,0
2018-02-06T00:54:22.846Z,0
2018-02-06T00:55:07.545Z,0
2018-02-06T00:55:52.267Z,0
2018-02-06T00:56:36.974Z,0
2018-02-06T00:57:21.692Z,0
2018-02-06T00:58:06.395Z,0
2018-02-06T00:58:51.167Z,0
2018-02-06T00:59:35.916Z,0
2018-02-06T01:00:20.620Z,0
2018-02-06T01:01:05.371Z,0
2018-02-06T01:01:50.138Z,0
2018-02-06T01:02:34.888Z,0
2018-02-06T01:03:19.592Z,0
2018-02-06T01:04:04.314Z,0
2018-02-06T01:04:49.070Z,0
2018-02-06T01:05:33.789Z,0
2018-02-06T01:06:18.514Z,0
2018-02-06T01:07:03.221Z,0
2018-02-06T01:07:47.993Z,0
2018-02-06T01:08:32.761Z,0
2018-02-06T01:09:17.464Z,0
2018-02-06T01:10:02.214Z,0
2018-02-06T01:10:46.907Z,0
2018-02-06T01:11:31.614Z,0
2018-02-06T01:12:16.366Z,0
2018-02-06T01:13:01.137Z,0
2018-02-06T01:13:45.835Z,0
2018-02-06T01:14:30.534Z,0
2018-02-06T01:15:15.289Z,0
2018-02-06T01:15:59.989Z,0
2018-02-06T01:16:44.758Z,0
2018-02-06T01:17:29.466Z,0
2018-02-06T01:18:14.185Z,0
2018-02-06T01:18:58.887Z,0
2018-02-06T01:19:43.607Z,0
2018-02-06T01:20:28.360Z,0
2018-02-06T01:21:13.057Z,0
2018-02-06T01:21:57.761Z,0
2018-02-06T01:22:42.482Z,0
2018-02-06T01:23:27.240Z,0
2018-02-06T01:24:11.956Z,0
2018-02-06T01:24:56.684Z,0
2018-02-06T01:25:41.432Z,0
2018-02-06T01:26:26.128Z,0
2018-02-06T01:27:10.830Z,0
2018-02-06T01:27:55.527Z,0
2018-02-06T01:28:40.276Z,0
2018-02-06T01:29:25.031Z,0
2018-02-06T01:30:09.677Z,0
2018-02-06T01:30:54.424Z,0
2018-02-06T01:31:39.124Z,0
2018-02-06T01:32:23.828Z,0
2018-02-06T01:33:08.525Z,0
2018-02-06T01:33:53.229Z,0
2018-02-06T01:34:37.934Z,0
2018-02-06T01:35:22.629Z,0
2018-02-06T01:36:07.379Z,0
2018-02-06T01:36:52.083Z,0
2018-02-06T01:37:36.807Z,0
2018-02-06T01:38:21.506Z,0
2018-02-06T01:39:06.253Z,0
2018-02-06T01:39:50.960Z,0
2018-02-06T01:40:35.690Z,0
2018-02-06T01:41:20.409Z,0
2018-02-06T01:42:05.163Z,0
2018-02-06T01:42:49.889Z,0
2018-02-06T01:43:34.585Z,0
2018-02-06T01:44:19.291Z,0
2018-02-06T01:45:04.061Z,0
2018-02-06T01:45:48.762Z,0
2018-02-06T01:46:33.466Z,0
2018-02-06T01:47:18.235Z,0
2018-02-06T01:48:02.935Z,0
2018-02-06T01:48:47.639Z,0
2018-02-06T01:49:32.409Z,0
2018-02-06T01:50:17.111Z,0
2018-02-06T01:51:01.885Z,0
2018-02-06T01:51:46.607Z,0
2018-02-06T01:52:31.332Z,0
2018-02-06T01:53:16.033Z,0
2018-02-06T01:54:00.759Z,0
2018-02-06T01:54:45.513Z,0
2018-02-06T01:55:30.232Z,0
2018-02-06T01:56:14.950Z,0
2018-02-06T01:56:59.651Z,0
2018-02-06T01:57:44.410Z,0
2018-02-06T01:58:29.101Z,0
2018-02-06T01:59:13.806Z,0
2018-02-06T01:59:58.526Z,0
2018-02-06T02:00:43.272Z,0
2018-02-06T02:01:28.023Z,0
2018-02-06T02:02:12.741Z,0
2018-02-06T02:02:57.448Z,0
2018-02-06T02:03:42.201Z,0
2018-02-06T02:04:26.924Z,0
2018-02-06T02:05:11.625Z,0
2018-02-06T02:05:56.373Z,0
2018-02-06T02:06:41.127Z,0
2018-02-06T02:07:25.847Z,0
2018-02-06T02:08:10.550Z,0
2018-02-06T02:08:55.312Z,0
2018-02-06T02:09:40.011Z,0
2018-02-06T02:10:24.709Z,0
2018-02-06T02:11:09.413Z,0
2018-02-06T02:11:54.162Z,0
2018-02-06T02:12:38.911Z,0
2018-02-06T02:13:23.607Z,0
2018-02-06T02:14:08.311Z,0
2018-02-06T02:14:53.036Z,0
2018-02-06T02:15:37.741Z,0
2018-02-06T02:16:22.439Z,0
2018-02-06T02:17:07.141Z,0
2018-02-06T02:17:51.842Z,0
2018-02-06T02:18:36.616Z,0
2018-02-06T02:19:21.386Z,0
2018-02-06T02:20:06.083Z,0
2018-02-06T02:20:50.782Z,0
2018-02-06T02:21:35.484Z,0
2018-02-06T02:22:20.242Z,0
2018-02-06T02:23:04.958Z,0
2018-02-06T02:23:49.662Z,0
2018-02-06T02:24:34.366Z,0
2018-02-06T02:25:19.062Z,0
2018-02-06T02:26:03.768Z,0
2018-02-06T02:26:48.493Z,0
2018-02-06T02:27:33.217Z,0
2018-02-06T02:28:17.916Z,0
2018-02-06T02:29:02.620Z,0
2018-02-06T02:29:47.392Z,0
2018-02-06T02:30:32.094Z,0
2018-02-06T02:31:16.789Z,0
2018-02-06T02:32:01.493Z,0
2018-02-06T02:32:46.264Z,0
2018-02-06T02:33:31.015Z,0
2018-02-06T02:34:15.765Z,0
2018-02-06T02:35:00.484Z,0
2018-02-06T02:35:45.188Z,0
2018-02-06T02:36:29.892Z,0
2018-02-06T02:37:14.620Z,0
2018-02-06T02:37:59.339Z,0
2018-02-06T02:38:44.042Z,0
2018-02-06T02:39:28.747Z,0
2018-02-06T02:40:13.470Z,0
2018-02-06T02:40:58.241Z,0
2018-02-06T02:41:42.985Z,0
2018-02-06T04:38:44.589Z,0
2018-02-06T04:39:29.287Z,0
2018-02-06T04:40:13.997Z,0
2018-02-06T04:40:58.713Z,0
2018-02-06T04:41:43.437Z,0
2018-02-06T04:42:28.186Z,0
2018-02-06T04:43:12.889Z,0
2018-02-06T04:43:57.611Z,0
2018-02-06T04:44:42.365Z,0
2018-02-06T04:45:27.066Z,0
2018-02-06T04:46:11.787Z,0
2018-02-06T04:46:56.491Z,0
2018-02-06T04:47:41.195Z,0
2018-02-06T04:48:25.919Z,0
2018-02-06T04:49:10.624Z,0
2018-02-06T04:49:55.319Z,0
2018-02-06T04:50:40.072Z,0
2018-02-06T04:51:24.769Z,0
2018-02-06T04:52:09.475Z,0
2018-02-06T04:52:54.248Z,0
2018-02-06T04:53:38.955Z,0
2018-02-06T04:54:23.676Z,0
2018-02-06T04:55:08.396Z,0
2018-02-06T04:55:53.103Z,0
2018-02-06T04:56:37.806Z,0
2018-02-06T04:57:22.532Z,0
2018-02-06T04:58:07.228Z,0
2018-02-06T04:58:51.934Z,0
2018-02-06T04:59:36.661Z,0
2018-02-06T05:00:21.360Z,0
2018-02-06T05:01:06.061Z,0
2018-02-06T05:01:50.766Z,0
2018-02-06T05:02:35.491Z,0
2018-02-06T05:03:20.267Z,0
2018-02-06T05:04:04.965Z,0
2018-02-06T05:04:49.668Z,0
2018-02-06T05:05:34.391Z,0
2018-02-06T05:06:19.150Z,0
2018-02-06T05:07:03.846Z,0
2018-02-06T05:07:48.542Z,0
2018-02-06T05:08:33.246Z,0
2018-02-06T05:09:17.945Z,0
2018-02-06T05:10:02.650Z,0
2018-02-06T05:10:47.351Z,0
2018-02-06T05:11:32.049Z,0
2018-02-06T05:12:16.756Z,0
2018-02-06T05:13:01.483Z,0
2018-02-06T05:13:46.230Z,0
2018-02-06T05:14:30.929Z,0
2018-02-06T05:15:15.633Z,0
2018-02-06T05:16:00.359Z,0
2018-02-06T05:16:45.108Z,0
2018-02-06T05:17:29.807Z,0
2018-02-06T05:18:14.515Z,0
2018-02-06T05:18:59.439Z,0
2018-02-06T05:19:44.142Z,0
2018-02-06T05:20:28.843Z,0
2018-02-06T05:21:13.566Z,0
2018-02-06T05:21:58.317Z,0
2018-02-06T05:22:43.023Z,0
2018-02-06T05:23:27.748Z,0
2018-02-06T05:24:12.444Z,0
2018-02-06T05:24:57.199Z,0
2018-02-06T05:25:41.918Z,0
2018-02-06T05:26:26.624Z,0
2018-02-06T05:27:11.320Z,0
2018-02-06T05:27:56.024Z,0
2018-02-06T05:28:40.748Z,0
2018-02-06T05:29:25.449Z,0
2018-02-06T05:30:10.261Z,0
2018-02-06T05:30:54.923Z,0
2018-02-06T05:31:39.623Z,0
2018-02-06T05:32:24.377Z,0
2018-02-06T05:33:09.104Z,0
2018-02-06T05:33:53.876Z,0
2018-02-06T05:34:38.575Z,0
2018-02-06T05:35:23.302Z,0
2018-02-06T05:36:07.999Z,0
2018-02-06T05:36:52.700Z,0
2018-02-06T05:37:37.405Z,0
2018-02-06T05:38:22.138Z,0
2018-02-06T05:39:06.877Z,0
2018-02-06T05:39:51.581Z,0
2018-02-06T05:40:36.305Z,0
2018-02-06T05:41:21.011Z,0
2018-02-06T05:42:05.709Z,0
2018-02-06T05:42:50.436Z,0
2018-02-06T05:43:35.188Z,0
2018-02-06T05:44:19.883Z,0
2018-02-06T05:45:04.638Z,0
2018-02-06T05:45:49.412Z,0
2018-02-06T05:46:34.181Z,0
2018-02-06T05:47:18.936Z,0
2018-02-06T05:48:03.711Z,0
2018-02-06T05:48:48.401Z,0
2018-02-06T05:49:33.190Z,0
2018-02-06T05:50:17.940Z,0
2018-02-06T05:51:02.668Z,0
2018-02-06T05:51:47.417Z,0
2018-02-06T05:52:32.115Z,0
2018-02-06T05:53:16.868Z,0
2018-02-06T05:54:01.555Z,0
2018-02-06T05:54:46.254Z,0
2018-02-06T05:55:30.959Z,0
2018-02-06T05:56:15.683Z,0
2018-02-06T05:57:00.435Z,0
2018-02-06T05:57:45.132Z,0
2018-02-06T05:58:29.889Z,0
2018-02-06T05:59:14.612Z,0
2018-02-06T05:59:59.361Z,0
2018-02-06T06:00:44.057Z,0
2018-02-06T06:01:28.765Z,0
2018-02-06T06:02:13.499Z,0
2018-02-06T06:02:58.407Z,0
2018-02-06T06:03:43.143Z,0
2018-02-06T06:04:27.852Z,0
2018-02-06T06:05:12.553Z,0
2018-02-06T06:05:57.272Z,0
2018-02-06T06:06:42.020Z,0
2018-02-06T06:07:26.770Z,0
2018-02-06T06:08:11.524Z,0
2018-02-06T06:08:56.333Z,0
2018-02-06T06:09:41.056Z,0
2018-02-06T06:10:25.750Z,0
2018-02-06T06:11:10.452Z,0
2018-02-06T06:11:55.178Z,0
2018-02-06T06:12:39.878Z,0
2018-02-06T06:13:24.584Z,0
2018-02-06T06:14:09.286Z,0
2018-02-06T06:14:53.990Z,0
2018-02-06T06:15:38.688Z,0
2018-02-06T06:16:23.419Z,0
2018-02-06T06:17:08.169Z,0
2018-02-06T06:17:52.876Z,0
2018-02-06T06:18:37.576Z,0
2018-02-06T06:19:22.324Z,0
2018-02-06T06:20:07.023Z,5
2018-02-06T06:20:51.731Z,5
2018-02-06T06:21:36.431Z,5
2018-02-06T06:22:21.157Z,5
2018-02-06T06:23:05.861Z,5
2018-02-06T06:23:50.561Z,5
2018-02-06T06:24:35.266Z,5
2018-02-06T06:25:19.994Z,5
2018-02-06T06:26:04.700Z,5
2018-02-06T06:26:49.426Z,10
2018-02-06T06:27:34.134Z,10
2018-02-06T06:28:18.838Z,10
2018-02-06T06:29:03.541Z,10
2018-02-06T06:29:48.250Z,10
2018-02-06T06:30:33.021Z,10
2018-02-06T06:31:17.724Z,10
2018-02-06T06:32:02.424Z,15
2018-02-06T06:32:47.182Z,15
2018-02-06T06:33:31.913Z,15
2018-02-06T06:34:16.635Z,15
2018-02-06T06:35:01.392Z,15
2018-02-06T06:35:46.168Z,20
2018-02-06T06:36:30.922Z,20
2018-02-06T06:37:15.671Z,20
2018-02-06T06:38:00.433Z,20
2018-02-06T06:38:45.158Z,25
2018-02-06T06:39:29.886Z,25
2018-02-06T06:40:14.586Z,25
2018-02-06T06:40:59.339Z,25
2018-02-06T06:41:44.090Z,25
2018-02-06T06:42:28.845Z,30
2018-02-06T06:43:13.554Z,30
2018-02-06T06:43:58.279Z,30
2018-02-06T06:44:42.988Z,35
2018-02-06T06:45:27.711Z,35
2018-02-06T06:46:12.411Z,35
2018-02-06T06:46:57.117Z,35
2018-02-06T06:47:41.870Z,40
2018-02-06T06:48:26.598Z,40
2018-02-06T06:49:11.348Z,40
2018-02-06T06:49:56.101Z,40
2018-02-06T06:50:40.829Z,45
2018-02-06T06:51:25.531Z,45
2018-02-06T06:52:10.237Z,45
2018-02-06T06:52:54.965Z,50
2018-02-06T06:53:39.695Z,50
2018-02-06T06:54:24.398Z,50
2018-02-06T06:55:09.100Z,50
2018-02-06T06:55:53.854Z,55
2018-02-06T06:56:38.560Z,55
2018-02-06T06:57:23.268Z,55
2018-02-06T06:58:08.050Z,55
2018-02-06T06:58:52.780Z,60
2018-02-06T06:59:37.502Z,60
2018-02-06T07:00:22.231Z,60
2018-02-06T07:01:06.935Z,65
2018-02-06T07:01:51.638Z,65
2018-02-06T07:02:36.366Z,65
2018-02-06T07:03:21.072Z,65
2018-02-06T07:04:05.799Z,70
2018-02-06T07:04:50.529Z,70
2018-02-06T07:05:35.255Z,70
2018-02-06T07:06:19.960Z,70
2018-02-06T07:07:04.664Z,75
2018-02-06T07:07:49.391Z,75
2018-02-06T07:08:34.096Z,75
2018-02-06T07:09:18.854Z,75
2018-02-06T07:10:03.560Z,80
2018-02-06T07:10:48.327Z,80
2018-02-06T07:11:32.993Z,80
2018-02-06T07:12:17.707Z,80
2018-02-06T07:13:02.438Z,85
2018-02-06T07:13:47.206Z,85
2018-02-06T07:14:31.911Z,85
2018-02-06T07:15:16.670Z,85
2018-02-06T07:16:01.402Z,90
2018-02-06T07:16:46.155Z,90
2018-02-06T07:17:30.860Z,90
2018-02-06T07:18:15.560Z,90
2018-02-06T07:19:00.322Z,95
2018-02-06T07:19:45.100Z,95
2018-02-06T07:20:29.830Z,95
2018-02-06T07:21:14.554Z,95
2018-02-06T07:21:59.313Z,95
2018-02-06T07:22:44.013Z,100
2018-02-06T07:23:28.768Z,100
2018-02-06T07:24:13.495Z,100
2018-02-06T07:24:58.253Z,100
2018-02-06T07:25:43.009Z,100
2018-02-06T07:26:27.783Z,105
2018-02-06T07:27:12.496Z,105
2018-02-06T07:27:57.247Z,105
2018-02-06T07:28:41.951Z,105
2018-02-06T07:29:26.662Z,105
2018-02-06T07:30:11.410Z,110
2018-02-06T07:30:56.116Z,110
2018-02-06T07:31:40.830Z,110
2018-02-06T07:32:25.555Z,110
2018-02-06T07:33:10.309Z,110
2018-02-06T07:33:55.019Z,115
2018-02-06T07:34:39.798Z,115
2018-02-06T07:35:24.529Z,115
2018-02-06T07:36:09.282Z,115
2018-02-06T07:36:53.988Z,115
2018-02-06T07:37:38.689Z,120
2018-02-06T07:38:23.400Z,120
2018-02-06T07:39:08.128Z,120
2018-02-06T07:39:52.838Z,120
2018-02-06T07:40:37.535Z,120
2018-02-06T07:41:22.291Z,120
2018-02-06T07:42:06.997Z,125
2018-02-06T07:42:51.705Z,125
2018-02-06T07:43:36.432Z,125
2018-02-06T07:44:21.192Z,125
2018-02-06T07:45:05.966Z,125
2018-02-06T07:45:50.676Z,130
2018-02-06T07:46:35.409Z,130
2018-02-06T07:47:20.116Z,130
2018-02-06T07:48:04.820Z,130
2018-02-06T07:48:49.531Z,130
2018-02-06T07:49:34.260Z,130
2018-02-06T07:50:19.550Z,135
2018-02-06T07:51:04.269Z,135
2018-02-06T07:51:49.010Z,135
2018-02-06T07:52:33.721Z,135
2018-02-06T07:53:18.447Z,135
2018-02-06T07:54:03.153Z,135
2018-02-06T07:54:47.885Z,135
2018-02-06T07:55:32.594Z,135
2018-02-06T07:56:17.295Z,140
2018-02-06T07:57:02.000Z,140
2018-02-06T07:57:46.706Z,140
2018-02-06T07:58:31.413Z,140
2018-02-06T07:59:16.218Z,140
2018-02-06T08:00:00.904Z,140
2018-02-06T08:00:45.606Z,140
2018-02-06T08:01:30.367Z,145
2018-02-06T08:02:15.065Z,145
2018-02-06T08:02:59.775Z,145
2018-02-06T08:03:44.478Z,145
2018-02-06T08:04:29.187Z,145
2018-02-06T08:05:13.918Z,145
2018-02-06T08:05:58.623Z,145
2018-02-06T08:06:43.331Z,145
2018-02-06T08:07:28.085Z,150
2018-02-06T08:08:12.818Z,150
2018-02-06T08:08:57.518Z,150
2018-02-06T08:09:42.220Z,150
2018-02-06T08:10:26.981Z,150
2018-02-06T08:11:11.749Z,150
2018-02-06T08:11:56.466Z,150
2018-02-06T08:12:41.178Z,150
2018-02-06T08:13:25.900Z,155
2018-02-06T08:14:10.609Z,155
2018-02-06T08:14:55.338Z,155
2018-02-06T08:15:40.042Z,155
2018-02-06T08:16:24.750Z,155
2018-02-06T08:17:09.486Z,155
2018-02-06T08:17:54.211Z,155
2018-02-06T08:18:39.015Z,155
2018-02-06T08:19:23.724Z,155
2018-02-06T08:20:08.395Z,160
2018-02-06T08:20:53.098Z,160
2018-02-06T08:21:37.808Z,160
2018-02-06T08:22:22.540Z,160
2018-02-06T08:23:07.243Z,160
2018-02-06T08:23:51.948Z,160
2018-02-06T08:24:36.656Z,160
2018-02-06T08:25:21.385Z,160
2018-02-06T08:26:06.154Z,160
2018-02-06T08:26:50.790Z,160
2018-02-06T08:27:35.503Z,165
2018-02-06T08:28:20.281Z,165
2018-02-06T08:29:04.984Z,165
2018-02-06T08:29:49.691Z,165
2018-02-06T08:30:34.420Z,165
2018-02-06T08:31:19.178Z,165
2018-02-06T08:32:03.888Z,165
2018-02-06T08:32:48.620Z,165
2018-02-06T08:33:33.377Z,165
2018-02-06T08:34:18.101Z,165
2018-02-06T08:35:02.853Z,165
2018-02-06T08:35:47.562Z,170
2018-02-06T08:36:32.273Z,170
2018-02-06T08:37:16.998Z,170
2018-02-06T08:38:01.705Z,170
2018-02-06T08:38:46.409Z,170
2018-02-06T08:39:31.110Z,170
2018-02-06T08:40:15.819Z,170
2018-02-06T08:41:00.551Z,170
2018-02-06T08:41:45.261Z,170
2018-02-06T08:42:30.013Z,170
2018-02-06T08:43:14.718Z,170
2018-02-06T08:43:59.447Z,170
2018-02-06T08:44:44.157Z,170
2018-02-06T08:45:28.886Z,175
2018-02-06T08:46:13.621Z,175
2018-02-06T08:46:58.330Z,175
2018-02-06T08:47:43.105Z,175
2018-02-06T08:48:27.883Z,175
2018-02-06T08:49:12.588Z,175
2018-02-06T08:49:57.295Z,175
2018-02-06T08:50:42.025Z,175
2018-02-06T08:51:26.727Z,175
2018-02-06T08:52:11.437Z,175
2018-02-06T08:52:56.167Z,175
2018-02-06T08:53:40.874Z,175
2018-02-06T08:54:25.579Z,175
2018-02-06T08:55:10.283Z,180
2018-02-06T08:55:55.039Z,180
2018-02-06T08:56:39.748Z,180
2018-02-06T08:57:24.480Z,180
2018-02-06T08:58:09.212Z,180
2018-02-06T08:58:53.945Z,180
2018-02-06T08:59:38.704Z,180
2018-02-06T09:00:23.382Z,180
2018-02-06T09:01:08.088Z,180
2018-02-06T09:01:52.817Z,180
2018-02-06T09:02:37.524Z,180
2018-02-06T09:03:22.236Z,180
2018-02-06T09:04:07.009Z,180
2018-02-06T09:04:51.717Z,180
2018-02-06T09:05:36.439Z,180
2018-02-06T09:06:21.177Z,180
2018-02-06T09:07:05.881Z,180
2018-02-06T09:07:50.585Z,180
2018-02-06T09:08:35.297Z,180
2018-02-06T09:09:20.026Z,180
2018-02-06T09:10:04.736Z,180
2018-02-06T09:10:49.439Z,180
2018-02-06T09:11:34.143Z,185
2018-02-06T09:12:18.848Z,185
2018-02-06T09:13:03.553Z,185
2018-02-06T09:13:48.313Z,185
2018-02-06T09:14:33.038Z,180
2018-02-06T09:15:17.746Z,180
2018-02-06T09:16:02.462Z,185
2018-02-06T09:16:47.230Z,185
2018-02-06T09:17:31.990Z,185
2018-02-06T09:18:16.743Z,185
2018-02-06T09:19:01.451Z,190
2018-02-06T09:19:46.154Z,190
2018-02-06T09:20:30.864Z,190
2018-02-06T09:21:15.595Z,185
2018-02-06T09:22:00.304Z,185
2018-02-06T09:22:45.013Z,185
2018-02-06T09:23:29.714Z,185
2018-02-06T09:24:14.442Z,180
2018-02-06T09:24:59.132Z,180
2018-02-06T09:25:43.835Z,175
2018-02-06T09:26:28.548Z,175
2018-02-06T09:27:13.253Z,175
2018-02-06T09:27:57.985Z,175
2018-02-06T09:28:42.718Z,180
2018-02-06T09:29:27.443Z,180
2018-02-06T09:30:12.198Z,185
2018-02-06T09:30:56.901Z,190
2018-02-06T09:31:41.610Z,190
2018-02-06T09:32:26.315Z,195
2018-02-06T09:33:11.094Z,205
2018-02-06T09:33:55.803Z,200
2018-02-06T09:34:40.526Z,205
2018-02-06T09:35:25.283Z,205
2018-02-06T09:36:09.995Z,210
2018-02-06T09:36:54.704Z,215
2018-02-06T09:37:39.431Z,205
2018-02-06T09:38:24.137Z,200
2018-02-06T09:39:08.843Z,200
2018-02-06T09:39:53.554Z,215
2018-02-06T09:40:38.378Z,230
2018-02-06T09:41:23.037Z,220
2018-02-06T09:42:07.749Z,210
2018-02-06T09:42:52.472Z,200
2018-02-06T09:43:37.184Z,200
2018-02-06T09:44:21.911Z,195
2018-02-06T09:45:06.619Z,205
2018-02-06T09:45:51.374Z,215
2018-02-06T09:46:36.080Z,215
2018-02-06T09:47:20.860Z,220
2018-02-06T09:48:05.566Z,205
2018-02-06T09:48:50.352Z,205
2018-02-06T09:49:35.046Z,205
2018-02-06T09:50:19.750Z,210
2018-02-06T09:51:04.459Z,225
2018-02-06T09:51:49.238Z,260
2018-02-06T09:52:33.942Z,230
2018-02-06T09:53:18.653Z,215
2018-02-06T09:54:03.349Z,205
2018-02-06T09:54:48.108Z,205
2018-02-06T09:55:32.842Z,210
2018-02-06T09:56:17.541Z,215
2018-02-06T09:57:02.254Z,220
2018-02-06T09:57:46.984Z,210
2018-02-06T09:58:31.732Z,205
2018-02-06T09:59:16.648Z,200
2018-02-06T10:00:01.156Z,195
2018-02-06T10:00:45.941Z,200
2018-02-06T10:01:30.662Z,200
2018-02-06T10:02:15.418Z,240
2018-02-06T10:03:00.106Z,260
2018-02-06T10:03:44.841Z,270
2018-02-06T10:04:29.542Z,245
2018-02-06T10:05:14.247Z,225
2018-02-06T10:05:58.956Z,230
2018-02-06T10:06:43.692Z,245
2018-02-06T10:07:28.403Z,260
2018-02-06T10:08:13.193Z,245
2018-02-06T10:08:57.886Z,235
2018-02-06T10:09:42.618Z,240
2018-02-06T10:10:27.383Z,245
2018-02-06T10:11:12.077Z,260
2018-02-06T10:11:56.787Z,275
2018-02-06T10:12:41.495Z,270
2018-02-06T10:13:26.232Z,255
2018-02-06T10:14:10.986Z,245
2018-02-06T10:14:55.700Z,255
2018-02-06T10:15:40.433Z,275
2018-02-06T10:16:25.158Z,290
2018-02-06T10:17:09.917Z,285
2018-02-06T10:17:54.645Z,270
2018-02-06T10:18:39.348Z,250
2018-02-06T10:19:24.049Z,265
2018-02-06T10:20:08.760Z,255
2018-02-06T10:20:53.485Z,260
2018-02-06T10:21:38.242Z,255
2018-02-06T10:22:22.950Z,260
2018-02-06T10:23:07.674Z,275
2018-02-06T10:23:52.430Z,295
2018-02-06T10:24:37.157Z,305
2018-02-06T10:25:21.858Z,295
2018-02-06T10:26:06.568Z,290
2018-02-06T10:26:51.294Z,270
2018-02-06T10:27:36.004Z,285
2018-02-06T10:28:20.728Z,275
2018-02-06T10:29:05.461Z,260
2018-02-06T10:29:50.182Z,270
2018-02-06T10:30:34.889Z,295
2018-02-06T10:31:19.590Z,290
2018-02-06T10:32:04.293Z,295
2018-02-06T10:32:49.004Z,315
2018-02-06T10:33:33.732Z,330
2018-02-06T10:34:18.428Z,315
2018-02-06T10:35:03.144Z,300
2018-02-06T10:35:47.876Z,305
2018-02-06T10:36:32.604Z,320
2018-02-06T10:37:17.379Z,350
2018-02-06T10:38:02.084Z,360
2018-02-06T10:38:46.817Z,345
2018-02-06T10:39:31.542Z,335
2018-02-06T10:40:16.248Z,315
2018-02-06T10:41:00.975Z,335
2018-02-06T10:41:45.661Z,315
2018-02-06T10:42:30.412Z,330
2018-02-06T10:43:15.125Z,355
2018-02-06T10:43:59.850Z,365
2018-02-06T10:44:44.557Z,340
2018-02-06T10:45:29.292Z,330
2018-02-06T10:46:14.067Z,340
2018-02-06T10:46:58.772Z,335
2018-02-06T10:47:43.481Z,295
2018-02-06T10:48:28.256Z,290
2018-02-06T10:49:13.013Z,300
2018-02-06T10:49:57.813Z,265
2018-02-06T10:50:42.524Z,245
2018-02-06T10:51:27.254Z,235
2018-02-06T10:52:12.030Z,215
2018-02-06T10:52:56.786Z,240
2018-02-06T10:53:41.478Z,295
2018-02-06T10:54:26.184Z,285
2018-02-06T10:55:10.938Z,235
2018-02-06T10:55:55.641Z,220
2018-02-06T10:56:40.349Z,220
2018-02-06T10:57:25.052Z,230
2018-02-06T10:58:09.755Z,250
2018-02-06T10:58:54.463Z,225
2018-02-06T10:59:39.192Z,205
2018-02-06T11:00:23.899Z,205
2018-02-06T11:01:08.602Z,215
2018-02-06T11:01:53.310Z,205
2018-02-06T11:02:38.042Z,200
2018-02-06T11:03:22.770Z,195
2018-02-06T11:04:07.472Z,195
2018-02-06T11:04:52.229Z,225
2018-02-06T11:05:36.950Z,230
2018-02-06T11:06:21.657Z,205
2018-02-06T11:07:06.395Z,200
2018-02-06T11:07:51.070Z,195
2018-02-06T11:08:35.798Z,195
2018-02-06T11:09:20.501Z,195
2018-02-06T11:10:05.209Z,195
2018-02-06T11:10:49.936Z,195
2018-02-06T11:11:34.642Z,195
2018-02-06T11:12:19.341Z,200
2018-02-06T11:13:04.053Z,200
2018-02-06T11:13:48.788Z,205
2018-02-06T11:14:33.484Z,200
2018-02-06T11:15:18.242Z,200
2018-02-06T11:16:02.967Z,205
2018-02-06T11:16:47.675Z,200
2018-02-06T11:17:32.429Z,195
2018-02-06T11:18:17.139Z,190
2018-02-06T11:19:01.849Z,200
2018-02-06T11:19:46.548Z,210
2018-02-06T11:20:31.263Z,200
2018-02-06T11:21:16.039Z,200
2018-02-06T11:22:00.738Z,205
2018-02-06T11:22:45.450Z,220
2018-02-06T11:23:30.179Z,210
2018-02-06T11:24:14.905Z,225
2018-02-06T11:24:59.610Z,235
2018-02-06T11:25:44.367Z,220
2018-02-06T11:26:29.144Z,210
2018-02-06T11:27:13.846Z,205
2018-02-06T11:27:58.554Z,220
2018-02-06T11:28:43.329Z,230
2018-02-06T11:29:28.087Z,240
2018-02-06T11:30:12.839Z,240
2018-02-06T11:30:57.573Z,230
2018-02-06T11:31:42.324Z,220
2018-02-06T11:32:27.022Z,215
2018-02-06T11:33:11.733Z,210
2018-02-06T11:33:56.447Z,225
2018-02-06T11:34:41.226Z,230
2018-02-06T11:35:25.950Z,225
2018-02-06T11:36:10.656Z,210
2018-02-06T11:36:55.439Z,205
2018-02-06T11:37:40.188Z,205
2018-02-06T11:38:24.898Z,205
2018-02-06T11:39:09.627Z,200
2018-02-06T11:39:54.331Z,200
2018-02-06T11:40:39.084Z,200
2018-02-06T11:41:23.792Z,195
2018-02-06T11:42:08.624Z,195
2018-02-06T11:42:53.349Z,195
2018-02-06T11:43:38.054Z,195
2018-02-06T11:44:22.758Z,195
2018-02-06T11:45:07.465Z,195
2018-02-06T11:45:52.171Z,190
2018-02-06T11:46:36.871Z,190
2018-02-06T11:47:21.586Z,190
2018-02-06T11:48:06.362Z,190
2018-02-06T11:48:51.087Z,190
2018-02-06T11:49:35.792Z,190
2018-02-06T11:50:20.496Z,190
2018-02-06T11:51:05.249Z,185
2018-02-06T11:51:49.956Z,190
2018-02-06T11:52:34.688Z,190
2018-02-06T11:53:19.412Z,185
2018-02-06T11:54:04.115Z,185
2018-02-06T11:54:48.821Z,190
2018-02-06T11:55:33.530Z,185
2018-02-06T11:56:18.253Z,185
2018-02-06T11:57:02.961Z,185
2018-02-06T11:57:47.668Z,185
2018-02-06T11:58:32.378Z,185
2018-02-06T11:59:17.100Z,185
2018-02-06T12:00:01.812Z,185
2018-02-06T12:00:46.500Z,185
2018-02-06T12:01:31.224Z,190
2018-02-06T12:02:15.952Z,190
2018-02-06T12:03:00.703Z,190
2018-02-06T12:03:45.406Z,190
2018-02-06T12:04:30.116Z,190
2018-02-06T12:05:14.817Z,195
2018-02-06T12:05:59.546Z,200
2018-02-06T12:06:44.252Z,195
2018-02-06T12:07:29.004Z,200
2018-02-06T12:08:13.708Z,200
2018-02-06T12:08:58.401Z,205
2018-02-06T12:09:43.192Z,205
2018-02-06T12:10:27.944Z,205
2018-02-06T12:11:12.649Z,205
2018-02-06T12:11:57.352Z,205
2018-02-06T12:12:42.056Z,210
2018-02-06T12:13:26.766Z,210
2018-02-06T12:14:11.492Z,205
2018-02-06T12:14:56.197Z,205
2018-02-06T12:15:40.900Z,205
2018-02-06T12:16:25.668Z,200
2018-02-06T12:17:10.372Z,200
2018-02-06T12:17:55.068Z,200
2018-02-06T12:18:39.946Z,200
2018-02-06T12:19:24.870Z,200
2018-02-06T12:20:09.580Z,200
2018-02-06T12:20:54.338Z,195
2018-02-06T12:21:39.066Z,195
2018-02-06T12:22:23.772Z,200
2018-02-06T12:23:08.475Z,200
2018-02-06T12:23:53.202Z,200
2018-02-06T12:24:37.908Z,200
2018-02-06T12:25:22.610Z,205
2018-02-06T12:26:07.372Z,205
2018-02-06T12:26:52.093Z,205
2018-02-06T12:27:36.797Z,210
2018-02-06T12:28:21.505Z,215
2018-02-06T12:29:06.289Z,215
2018-02-06T12:29:51.014Z,215
2018-02-06T12:30:35.718Z,220
2018-02-06T12:31:20.448Z,220
2018-02-06T12:32:05.201Z,220
2018-02-06T12:32:49.956Z,225